sensor_id;sensor_type;location;lat;lon;timestamp;pressure;altitude;pressure_sealevel;temperature;humidity
22206;BME280;11272;50.104;8.754;2023-01-10T00:12:07;100266.50;;;6.37;84.10
22206;BME280;11272;50.104;8.754;2023-01-10T00:14:51;100269.16;;;6.35;84.30
22206;BME280;11272;50.104;8.754;2023-01-10T00:17:17;100284.09;;;6.34;84.38
22206;BME280;11272;50.104;8.754;2023-01-10T00:19:42;100286.72;;;6.36;84.57
22206;BME280;11272;50.104;8.754;2023-01-10T00:22:08;100284.91;;;6.41;84.72
22206;BME280;11272;50.104;8.754;2023-01-10T01:21:22;100428.72;;;7.00;84.65
22206;BME280;11272;50.104;8.754;2023-01-10T01:23:55;100430.50;;;7.04;84.86
22206;BME280;11272;50.104;8.754;2023-01-10T01:26:22;100439.25;;;7.07;84.75
22206;BME280;11272;50.104;8.754;2023-01-10T01:28:48;100436.56;;;7.12;84.68
22206;BME280;11272;50.104;8.754;2023-01-10T01:31:13;100446.22;;;7.16;84.40
22206;BME280;11272;50.104;8.754;2023-01-10T01:33:39;100456.78;;;7.19;84.37
22206;BME280;11272;50.104;8.754;2023-01-10T01:36:09;100462.03;;;7.22;83.96
22206;BME280;11272;50.104;8.754;2023-01-10T01:38:36;100470.81;;;7.24;83.69
22206;BME280;11272;50.104;8.754;2023-01-10T01:41:03;100476.06;;;7.27;83.60
22206;BME280;11272;50.104;8.754;2023-01-10T01:43:29;100484.88;;;7.29;83.05
22206;BME280;11272;50.104;8.754;2023-01-10T01:46:01;100490.13;;;7.32;82.83
22206;BME280;11272;50.104;8.754;2023-01-10T01:48:38;100487.47;;;7.35;82.56
22206;BME280;11272;50.104;8.754;2023-01-10T01:51:16;100492.75;;;7.35;82.29
22206;BME280;11272;50.104;8.754;2023-01-10T01:53:49;100483.06;;;7.34;82.05
22206;BME280;11272;50.104;8.754;2023-01-10T01:56:22;100493.63;;;7.34;81.80
22206;BME280;11272;50.104;8.754;2023-01-10T01:58:57;100507.72;;;7.36;82.09
22206;BME280;11272;50.104;8.754;2023-01-10T02:01:23;100513.84;;;7.38;82.23
22206;BME280;11272;50.104;8.754;2023-01-10T02:03:58;100525.28;;;7.39;81.97
22206;BME280;11272;50.104;8.754;2023-01-10T02:06:27;100527.03;;;7.40;81.75
22206;BME280;11272;50.104;8.754;2023-01-10T02:09:07;100534.97;;;7.40;81.88
22206;BME280;11272;50.104;8.754;2023-01-10T02:11:34;100542.91;;;7.38;81.85
22206;BME280;11272;50.104;8.754;2023-01-10T02:14:03;100539.38;;;7.39;81.80
22206;BME280;11272;50.104;8.754;2023-01-10T02:16:29;100544.66;;;7.38;81.52
22206;BME280;11272;50.104;8.754;2023-01-10T02:18:56;100544.66;;;7.39;81.58
22206;BME280;11272;50.104;8.754;2023-01-10T02:21:55;100548.19;;;7.38;81.30
22206;BME280;11272;50.104;8.754;2023-01-10T02:24:31;100558.78;;;7.37;81.62
22206;BME280;11272;50.104;8.754;2023-01-10T02:27:19;100557.00;;;7.37;81.34
22206;BME280;11272;50.104;8.754;2023-01-10T02:32:28;100574.59;;;7.40;81.45
22206;BME280;11272;50.104;8.754;2023-01-10T02:38:03;100576.34;;;7.41;81.41
22206;BME280;11272;50.104;8.754;2023-01-10T02:40:52;100572.84;;;7.40;81.39
22206;BME280;11272;50.104;8.754;2023-01-10T02:43:29;100572.84;;;7.40;81.16
22206;BME280;11272;50.104;8.754;2023-01-10T02:46:16;100579.00;;;7.41;81.65
22206;BME280;11272;50.104;8.754;2023-01-10T02:48:42;100589.56;;;7.41;81.57
22206;BME280;11272;50.104;8.754;2023-01-10T02:53:44;100591.31;;;7.40;81.51
22206;BME280;11272;50.104;8.754;2023-01-10T02:56:27;100594.84;;;7.38;81.22
22206;BME280;11272;50.104;8.754;2023-01-10T03:06:46;100613.56;;;6.97;80.46
22206;BME280;11272;50.104;8.754;2023-01-10T03:09:33;100614.47;;;6.85;80.74
22206;BME280;11272;50.104;8.754;2023-01-10T03:12:25;100624.19;;;6.77;80.82
22206;BME280;11272;50.104;8.754;2023-01-10T03:14:54;100620.69;;;6.70;81.06
22206;BME280;11272;50.104;8.754;2023-01-10T03:17:22;100626.84;;;6.66;80.74
22206;BME280;11272;50.104;8.754;2023-01-10T03:19:52;100633.03;;;6.62;80.83
22206;BME280;11272;50.104;8.754;2023-01-10T03:22:19;100640.06;;;6.60;81.08
22206;BME280;11272;50.104;8.754;2023-01-10T03:24:48;100649.72;;;6.60;81.28
22206;BME280;11272;50.104;8.754;2023-01-10T03:30:09;100651.47;;;6.64;81.64
22206;BME280;11272;50.104;8.754;2023-01-10T03:32:38;100652.34;;;6.64;81.75
22206;BME280;11272;50.104;8.754;2023-01-10T03:35:05;100656.75;;;6.64;81.69
22206;BME280;11272;50.104;8.754;2023-01-10T03:40:17;100669.94;;;6.59;81.51
22206;BME280;11272;50.104;8.754;2023-01-10T03:42:55;100664.69;;;6.56;81.46
22206;BME280;11272;50.104;8.754;2023-01-10T03:46:04;100671.72;;;6.48;81.45
22206;BME280;11272;50.104;8.754;2023-01-10T03:48:36;100680.53;;;6.44;81.27
22206;BME280;11272;50.104;8.754;2023-01-10T03:51:04;100682.28;;;6.39;81.40
22206;BME280;11272;50.104;8.754;2023-01-10T03:53:32;100692.81;;;6.36;81.87
22206;BME280;11272;50.104;8.754;2023-01-10T03:55:59;100699.00;;;6.33;81.33
22206;BME280;11272;50.104;8.754;2023-01-10T03:58:27;100706.00;;;6.31;81.58
22206;BME280;11272;50.104;8.754;2023-01-10T04:00:53;100706.91;;;6.29;81.85
22206;BME280;11272;50.104;8.754;2023-01-10T04:03:19;100715.69;;;6.28;81.64
22206;BME280;11272;50.104;8.754;2023-01-10T04:05:44;100721.81;;;6.25;81.93
22206;BME280;11272;50.104;8.754;2023-01-10T04:08:10;100723.63;;;6.29;82.11
22206;BME280;11272;50.104;8.754;2023-01-10T04:10:35;100735.03;;;6.36;82.24
22206;BME280;11272;50.104;8.754;2023-01-10T04:13:03;100729.75;;;6.39;81.93
22206;BME280;11272;50.104;8.754;2023-01-10T04:15:29;100728.00;;;6.38;81.67
22206;BME280;11272;50.104;8.754;2023-01-10T04:17:55;100742.06;;;6.34;81.76
22206;BME280;11272;50.104;8.754;2023-01-10T04:20:21;100735.03;;;6.30;81.59
22206;BME280;11272;50.104;8.754;2023-01-10T04:22:47;100752.59;;;6.28;81.74
22206;BME280;11272;50.104;8.754;2023-01-10T04:25:14;100751.72;;;6.24;81.62
22206;BME280;11272;50.104;8.754;2023-01-10T04:27:42;100761.38;;;6.21;81.58
22206;BME280;11272;50.104;8.754;2023-01-10T04:30:08;100755.22;;;6.17;81.48
22206;BME280;11272;50.104;8.754;2023-01-10T04:32:34;100760.50;;;6.16;81.72
22206;BME280;11272;50.104;8.754;2023-01-10T04:34:59;100762.25;;;6.12;81.40
22206;BME280;11272;50.104;8.754;2023-01-10T04:37:25;100773.66;;;6.07;81.81
22206;BME280;11272;50.104;8.754;2023-01-10T04:39:50;100768.38;;;6.01;81.48
22206;BME280;11272;50.104;8.754;2023-01-10T04:42:16;100773.66;;;5.98;81.78
22206;BME280;11272;50.104;8.754;2023-01-10T04:44:42;100777.16;;;5.97;81.54
22206;BME280;11272;50.104;8.754;2023-01-10T04:47:07;100776.28;;;5.96;81.81
22206;BME280;11272;50.104;8.754;2023-01-10T04:49:33;100771.88;;;5.97;82.01
22206;BME280;11272;50.104;8.754;2023-01-10T04:51:59;100776.25;;;5.93;81.96
22206;BME280;11272;50.104;8.754;2023-01-10T04:54:24;100768.34;;;5.90;81.76
22206;BME280;11272;50.104;8.754;2023-01-10T04:56:50;100772.72;;;5.89;82.31
22206;BME280;11272;50.104;8.754;2023-01-10T04:59:15;100775.38;;;5.89;82.21
22206;BME280;11272;50.104;8.754;2023-01-10T05:01:42;100786.78;;;5.87;82.36
22206;BME280;11272;50.104;8.754;2023-01-10T05:04:08;100799.03;;;5.85;82.27
22206;BME280;11272;50.104;8.754;2023-01-10T05:06:34;100795.53;;;5.84;82.25
22206;BME280;11272;50.104;8.754;2023-01-10T05:09:00;100802.59;;;5.87;82.23
22206;BME280;11272;50.104;8.754;2023-01-10T05:11:26;100809.63;;;5.89;82.53
22206;BME280;11272;50.104;8.754;2023-01-10T05:13:51;100815.78;;;5.93;82.29
22206;BME280;11272;50.104;8.754;2023-01-10T05:16:17;100814.94;;;5.96;82.65
22206;BME280;11272;50.104;8.754;2023-01-10T05:18:42;100811.41;;;6.00;82.21
22206;BME280;11272;50.104;8.754;2023-01-10T05:21:10;100814.09;;;6.03;82.26
22206;BME280;11272;50.104;8.754;2023-01-10T05:23:37;100830.78;;;6.03;82.04
22206;BME280;11272;50.104;8.754;2023-01-10T05:26:20;100828.13;;;6.00;82.11
22206;BME280;11272;50.104;8.754;2023-01-10T05:28:46;100834.28;;;5.98;81.99
22206;BME280;11272;50.104;8.754;2023-01-10T05:31:14;100838.66;;;5.96;82.14
22206;BME280;11272;50.104;8.754;2023-01-10T05:33:49;100850.06;;;5.95;82.34
22206;BME280;11272;50.104;8.754;2023-01-10T05:36:16;100850.94;;;5.93;82.36
22206;BME280;11272;50.104;8.754;2023-01-10T05:38:42;100851.81;;;5.94;82.14
22206;BME280;11272;50.104;8.754;2023-01-10T05:41:08;100864.13;;;5.97;82.51
22206;BME280;11272;50.104;8.754;2023-01-10T05:43:34;100865.00;;;5.99;82.82
22206;BME280;11272;50.104;8.754;2023-01-10T05:45:59;100879.06;;;6.04;82.75
22206;BME280;11272;50.104;8.754;2023-01-10T05:48:25;100883.50;;;6.08;82.66
22206;BME280;11272;50.104;8.754;2023-01-10T05:50:51;100886.16;;;6.12;82.45
22206;BME280;11272;50.104;8.754;2023-01-10T05:53:18;100894.06;;;6.15;82.74
22206;BME280;11272;50.104;8.754;2023-01-10T05:55:50;100889.72;;;6.19;82.63
22206;BME280;11272;50.104;8.754;2023-01-10T05:58:16;100892.34;;;6.22;82.58
22206;BME280;11272;50.104;8.754;2023-01-10T06:00:42;100898.50;;;6.24;82.75
22206;BME280;11272;50.104;8.754;2023-01-10T06:03:07;100902.91;;;6.26;82.87
22206;BME280;11272;50.104;8.754;2023-01-10T06:05:32;100905.56;;;6.28;82.79
22206;BME280;11272;50.104;8.754;2023-01-10T06:07:58;100897.66;;;6.29;82.51
22206;BME280;11272;50.104;8.754;2023-01-10T06:10:24;100916.09;;;6.31;82.59
22206;BME280;11272;50.104;8.754;2023-01-10T06:12:50;100913.47;;;6.31;82.58
22206;BME280;11272;50.104;8.754;2023-01-10T06:15:15;100913.47;;;6.29;82.59
22206;BME280;11272;50.104;8.754;2023-01-10T06:17:41;100923.16;;;6.29;82.24
22206;BME280;11272;50.104;8.754;2023-01-10T06:20:11;100931.94;;;6.28;82.29
22206;BME280;11272;50.104;8.754;2023-01-10T06:22:41;100930.16;;;6.27;82.31
22206;BME280;11272;50.104;8.754;2023-01-10T06:25:12;100942.47;;;6.25;82.07
22206;BME280;11272;50.104;8.754;2023-01-10T06:27:39;100947.72;;;6.23;82.21
22206;BME280;11272;50.104;8.754;2023-01-10T06:30:06;100959.16;;;6.24;82.37
22206;BME280;11272;50.104;8.754;2023-01-10T06:32:32;100970.56;;;6.26;82.46
22206;BME280;11272;50.104;8.754;2023-01-10T06:34:58;100969.72;;;6.31;82.48
22206;BME280;11272;50.104;8.754;2023-01-10T06:37:24;100957.44;;;6.33;82.48
22206;BME280;11272;50.104;8.754;2023-01-10T06:39:49;100958.31;;;6.37;82.39
22206;BME280;11272;50.104;8.754;2023-01-10T06:42:16;100961.00;;;6.40;82.11
22206;BME280;11272;50.104;8.754;2023-01-10T06:44:41;100967.13;;;6.42;82.38
22206;BME280;11272;50.104;8.754;2023-01-10T06:47:07;100970.69;;;6.46;82.48
22206;BME280;11272;50.104;8.754;2023-01-10T06:49:33;100967.16;;;6.48;82.01
22206;BME280;11272;50.104;8.754;2023-01-10T06:51:58;100974.22;;;6.49;82.41
22206;BME280;11272;50.104;8.754;2023-01-10T06:54:24;100983.88;;;6.52;82.16
22206;BME280;11272;50.104;8.754;2023-01-10T06:56:49;100983.88;;;6.52;82.33
22206;BME280;11272;50.104;8.754;2023-01-10T06:59:15;101003.25;;;6.54;82.05
22206;BME280;11272;50.104;8.754;2023-01-10T07:01:41;101019.94;;;6.54;82.20
22206;BME280;11272;50.104;8.754;2023-01-10T07:04:06;101023.50;;;6.56;82.00
22206;BME280;11272;50.104;8.754;2023-01-10T07:06:38;101012.94;;;6.56;82.04
22206;BME280;11272;50.104;8.754;2023-01-10T07:09:04;101003.28;;;6.57;81.72
22206;BME280;11272;50.104;8.754;2023-01-10T07:11:31;100999.72;;;6.58;81.89
22206;BME280;11272;50.104;8.754;2023-01-10T07:13:59;100989.19;;;6.56;81.74
22206;BME280;11272;50.104;8.754;2023-01-10T07:16:25;100992.72;;;6.57;81.85
22206;BME280;11272;50.104;8.754;2023-01-10T07:18:51;100997.97;;;6.55;81.66
22206;BME280;11272;50.104;8.754;2023-01-10T07:21:17;101016.44;;;6.54;81.76
22206;BME280;11272;50.104;8.754;2023-01-10T07:23:50;101026.97;;;6.52;81.18
22206;BME280;11272;50.104;8.754;2023-01-10T07:26:17;101030.50;;;6.53;81.53
22206;BME280;11272;50.104;8.754;2023-01-10T07:28:47;101037.56;;;6.55;81.45
22206;BME280;11272;50.104;8.754;2023-01-10T07:31:16;101044.59;;;6.59;81.23
22206;BME280;11272;50.104;8.754;2023-01-10T07:33:42;101048.13;;;6.61;81.38
22206;BME280;11272;50.104;8.754;2023-01-10T07:36:08;101059.56;;;6.65;81.30
22206;BME280;11272;50.104;8.754;2023-01-10T07:38:34;101053.44;;;6.67;81.07
22206;BME280;11272;50.104;8.754;2023-01-10T07:41:03;101061.34;;;6.69;80.81
22206;BME280;11272;50.104;8.754;2023-01-10T07:43:29;101064.00;;;6.67;80.69
22206;BME280;11272;50.104;8.754;2023-01-10T07:45:59;101053.41;;;6.64;80.53
22206;BME280;11272;50.104;8.754;2023-01-10T07:48:25;101049.88;;;6.59;80.47
22206;BME280;11272;50.104;8.754;2023-01-10T07:50:58;101070.94;;;6.53;80.38
22206;BME280;11272;50.104;8.754;2023-01-10T07:53:25;101079.72;;;6.49;80.43
22206;BME280;11272;50.104;8.754;2023-01-10T07:55:51;101078.84;;;6.46;80.27
22206;BME280;11272;50.104;8.754;2023-01-10T07:58:17;101080.56;;;6.47;80.36
22206;BME280;11272;50.104;8.754;2023-01-10T08:00:43;101089.41;;;6.53;80.58
22206;BME280;11272;50.104;8.754;2023-01-10T08:03:11;101081.56;;;6.61;80.57
22206;BME280;11272;50.104;8.754;2023-01-10T08:05:37;101080.69;;;6.68;80.18
22206;BME280;11272;50.104;8.754;2023-01-10T08:08:08;101077.19;;;6.73;80.14
22206;BME280;11272;50.104;8.754;2023-01-10T08:10:36;101080.72;;;6.74;79.74
22206;BME280;11272;50.104;8.754;2023-01-10T08:13:02;101086.88;;;6.74;79.61
22206;BME280;11272;50.104;8.754;2023-01-10T08:15:28;101085.16;;;6.76;79.32
22206;BME280;11272;50.104;8.754;2023-01-10T08:17:53;101086.91;;;6.78;79.35
22206;BME280;11272;50.104;8.754;2023-01-10T08:20:20;101088.69;;;6.77;79.12
22206;BME280;11272;50.104;8.754;2023-01-10T08:22:45;101080.75;;;6.77;78.96
22206;BME280;11272;50.104;8.754;2023-01-10T08:25:11;101096.59;;;6.77;79.12
22206;BME280;11272;50.104;8.754;2023-01-10T08:27:37;101095.72;;;6.78;78.94
22206;BME280;11272;50.104;8.754;2023-01-10T08:30:04;101104.50;;;6.78;78.79
22206;BME280;11272;50.104;8.754;2023-01-10T08:32:31;101106.28;;;6.81;78.85
22206;BME280;11272;50.104;8.754;2023-01-10T08:35:01;101113.34;;;6.87;78.67
22206;BME280;11272;50.104;8.754;2023-01-10T08:37:28;101109.84;;;6.92;78.85
22206;BME280;11272;50.104;8.754;2023-01-10T08:39:56;101113.41;;;6.97;78.44
22206;BME280;11272;50.104;8.754;2023-01-10T08:42:22;101118.69;;;7.03;78.58
22206;BME280;11272;50.104;8.754;2023-01-10T08:44:48;101121.38;;;7.14;78.43
22206;BME280;11272;50.104;8.754;2023-01-10T08:47:13;101117.91;;;7.24;78.42
22206;BME280;11272;50.104;8.754;2023-01-10T08:49:43;101113.53;;;7.35;78.38
22206;BME280;11272;50.104;8.754;2023-01-10T08:52:09;101118.84;;;7.50;78.00
22206;BME280;11272;50.104;8.754;2023-01-10T08:54:38;101111.81;;;7.86;78.32
22206;BME280;11272;50.104;8.754;2023-01-10T08:57:06;101124.22;;;8.32;77.79
22206;BME280;11272;50.104;8.754;2023-01-10T08:59:32;101120.53;;;8.82;78.13
22206;BME280;11272;50.104;8.754;2023-01-10T09:02:01;101123.94;;;9.23;75.37
22206;BME280;11272;50.104;8.754;2023-01-10T09:04:29;101126.31;;;9.69;74.54
22206;BME280;11272;50.104;8.754;2023-01-10T09:06:56;101118.19;;;9.93;73.55
22206;BME280;11272;50.104;8.754;2023-01-10T09:09:22;101120.97;;;9.77;72.74
22206;BME280;11272;50.104;8.754;2023-01-10T09:11:48;101130.72;;;9.71;72.67
22206;BME280;11272;50.104;8.754;2023-01-10T09:14:14;101127.09;;;9.83;72.64
22206;BME280;11272;50.104;8.754;2023-01-10T09:16:40;101133.16;;;10.00;72.35
22206;BME280;11272;50.104;8.754;2023-01-10T09:19:07;101123.94;;;10.47;73.03
22206;BME280;11272;50.104;8.754;2023-01-10T09:21:34;101124.56;;;10.70;70.50
22206;BME280;11272;50.104;8.754;2023-01-10T09:24:00;101143.94;;;10.81;69.30
22206;BME280;11272;50.104;8.754;2023-01-10T09:26:26;101145.38;;;11.10;69.09
22206;BME280;11272;50.104;8.754;2023-01-10T09:28:51;101140.41;;;11.51;68.82
22206;BME280;11272;50.104;8.754;2023-01-10T09:31:18;101145.75;;;12.11;67.68
22206;BME280;11272;50.104;8.754;2023-01-10T09:33:43;101137.13;;;12.46;65.91
22206;BME280;11272;50.104;8.754;2023-01-10T09:36:11;101144.84;;;12.61;65.25
22206;BME280;11272;50.104;8.754;2023-01-10T09:38:38;101144.88;;;13.05;64.40
22206;BME280;11272;50.104;8.754;2023-01-10T09:46:25;101136.97;;;13.84;59.55
22206;BME280;11272;50.104;8.754;2023-01-10T09:48:59;101131.69;;;13.82;59.93
22206;BME280;11272;50.104;8.754;2023-01-10T09:51:42;101142.09;;;13.93;59.48
22206;BME280;11272;50.104;8.754;2023-01-10T09:54:33;101149.53;;;14.16;59.60
22206;BME280;11272;50.104;8.754;2023-01-10T09:57:00;101139.09;;;14.76;54.32
22206;BME280;11272;50.104;8.754;2023-01-10T09:59:38;101146.28;;;15.37;55.72
22206;BME280;11272;50.104;8.754;2023-01-10T10:02:22;101151.66;;;15.94;54.88
22206;BME280;11272;50.104;8.754;2023-01-10T10:05:00;101155.84;;;16.03;54.64
22206;BME280;11272;50.104;8.754;2023-01-10T10:07:29;101146.25;;;15.96;54.22
22206;BME280;11272;50.104;8.754;2023-01-10T10:09:54;101149.16;;;16.16;52.99
22206;BME280;11272;50.104;8.754;2023-01-10T10:15:19;101145.97;;;16.31;51.36
22206;BME280;11272;50.104;8.754;2023-01-10T10:18:02;101146.81;;;16.60;51.65
22206;BME280;11272;50.104;8.754;2023-01-10T10:32:15;101141.63;;;17.98;48.35
22206;BME280;11272;50.104;8.754;2023-01-10T10:37:32;101145.69;;;16.92;47.16
22206;BME280;11272;50.104;8.754;2023-01-10T10:40:10;101150.66;;;16.51;46.90
22206;BME280;11272;50.104;8.754;2023-01-10T10:42:48;101146.25;;;16.50;48.03
22206;BME280;11272;50.104;8.754;2023-01-10T10:45:34;101156.41;;;15.86;47.39
22206;BME280;11272;50.104;8.754;2023-01-10T10:48:32;101162.50;;;15.00;47.88
22206;BME280;11272;50.104;8.754;2023-01-10T10:53:28;101160.22;;;14.16;48.71
22206;BME280;11272;50.104;8.754;2023-01-10T10:55:54;101167.63;;;13.66;49.54
22206;BME280;11272;50.104;8.754;2023-01-10T10:58:21;101157.28;;;13.08;49.77
22206;BME280;11272;50.104;8.754;2023-01-10T11:00:47;101165.19;;;12.66;50.89
22206;BME280;11272;50.104;8.754;2023-01-10T11:03:38;101170.41;;;12.22;51.45
22206;BME280;11272;50.104;8.754;2023-01-10T11:06:07;101161.91;;;11.99;52.26
22206;BME280;11272;50.104;8.754;2023-01-10T11:08:37;101163.19;;;11.73;52.63
22206;BME280;11272;50.104;8.754;2023-01-10T11:11:31;101174.00;;;11.57;53.06
22206;BME280;11272;50.104;8.754;2023-01-10T11:14:00;101175.06;;;11.45;53.53
22206;BME280;11272;50.104;8.754;2023-01-10T11:16:32;101181.53;;;11.23;54.01
22206;BME280;11272;50.104;8.754;2023-01-10T11:19:21;101168.41;;;11.11;54.25
22206;BME280;11272;50.104;8.754;2023-01-10T11:22:01;101175.38;;;11.21;54.61
22206;BME280;11272;50.104;8.754;2023-01-10T11:24:51;101173.69;;;11.14;54.71
22206;BME280;11272;50.104;8.754;2023-01-10T11:27:23;101163.09;;;11.08;55.54
22206;BME280;11272;50.104;8.754;2023-01-10T11:30:01;101164.00;;;11.08;55.82
22206;BME280;11272;50.104;8.754;2023-01-10T11:32:34;101158.41;;;11.28;56.09
22206;BME280;11272;50.104;8.754;2023-01-10T11:35:06;101157.47;;;11.35;55.79
22206;BME280;11272;50.104;8.754;2023-01-10T11:37:34;101169.13;;;11.23;56.07
22206;BME280;11272;50.104;8.754;2023-01-10T11:40:20;101171.84;;;11.19;56.23
22206;BME280;11272;50.104;8.754;2023-01-10T11:42:49;101166.63;;;11.10;55.95
22206;BME280;11272;50.104;8.754;2023-01-10T11:50:18;101155.50;;;10.76;56.98
22206;BME280;11272;50.104;8.754;2023-01-10T11:52:45;101154.59;;;10.78;56.95
22206;BME280;11272;50.104;8.754;2023-01-10T11:55:18;101151.88;;;10.84;56.98
22206;BME280;11272;50.104;8.754;2023-01-10T11:57:44;101145.63;;;10.88;57.18
22206;BME280;11272;50.104;8.754;2023-01-10T12:00:11;101149.25;;;10.80;56.92
22206;BME280;11272;50.104;8.754;2023-01-10T12:02:42;101150.28;;;10.67;57.13
22206;BME280;11272;50.104;8.754;2023-01-10T12:05:18;101161.06;;;10.50;57.36
22206;BME280;11272;50.104;8.754;2023-01-10T12:08:02;101155.81;;;10.45;57.76
22206;BME280;11272;50.104;8.754;2023-01-10T12:10:33;101147.06;;;10.33;57.52
22206;BME280;11272;50.104;8.754;2023-01-10T12:13:11;101147.16;;;10.25;58.05
22206;BME280;11272;50.104;8.754;2023-01-10T12:15:38;101148.00;;;10.29;58.53
22206;BME280;11272;50.104;8.754;2023-01-10T12:18:05;101140.81;;;10.40;58.51
22206;BME280;11272;50.104;8.754;2023-01-10T12:20:47;101143.47;;;10.41;58.58
22206;BME280;11272;50.104;8.754;2023-01-10T12:23:20;101128.31;;;10.51;58.70
22206;BME280;11272;50.104;8.754;2023-01-10T12:25:47;101129.56;;;10.97;58.56
22206;BME280;11272;50.104;8.754;2023-01-10T12:28:17;101115.94;;;11.26;58.11
22206;BME280;11272;50.104;8.754;2023-01-10T12:30:45;101120.28;;;11.32;58.12
22206;BME280;11272;50.104;8.754;2023-01-10T12:33:23;101122.06;;;11.31;57.48
22206;BME280;11272;50.104;8.754;2023-01-10T12:36:18;101117.78;;;11.17;57.37
22206;BME280;11272;50.104;8.754;2023-01-10T12:39:01;101119.88;;;10.93;57.44
22206;BME280;11272;50.104;8.754;2023-01-10T12:41:42;101135.06;;;10.79;57.85
22206;BME280;11272;50.104;8.754;2023-01-10T12:44:42;101126.44;;;10.62;58.19
22206;BME280;11272;50.104;8.754;2023-01-10T12:47:18;101139.81;;;10.50;57.68
22206;BME280;11272;50.104;8.754;2023-01-10T12:49:51;101145.34;;;10.30;57.95
22206;BME280;11272;50.104;8.754;2023-01-10T12:55:16;101140.09;;;10.15;58.42
22206;BME280;11272;50.104;8.754;2023-01-10T12:57:46;101139.25;;;10.14;58.80
22206;BME280;11272;50.104;8.754;2023-01-10T13:00:36;101133.94;;;10.14;58.65
22206;BME280;11272;50.104;8.754;2023-01-10T13:03:10;101134.81;;;10.13;58.61
22206;BME280;11272;50.104;8.754;2023-01-10T13:05:36;101135.75;;;10.06;58.62
22206;BME280;11272;50.104;8.754;2023-01-10T13:08:09;101142.00;;;10.02;58.87
22206;BME280;11272;50.104;8.754;2023-01-10T13:10:40;101129.69;;;9.92;58.64
22206;BME280;11272;50.104;8.754;2023-01-10T13:13:15;101132.38;;;9.86;59.03
22206;BME280;11272;50.104;8.754;2023-01-10T13:15:55;101136.78;;;9.89;58.93
22206;BME280;11272;50.104;8.754;2023-01-10T13:18:28;101151.88;;;9.82;59.05
22206;BME280;11272;50.104;8.754;2023-01-10T13:21:06;101144.81;;;9.80;58.82
22206;BME280;11272;50.104;8.754;2023-01-10T13:23:47;101136.91;;;9.69;59.07
22206;BME280;11272;50.104;8.754;2023-01-10T13:26:14;101137.84;;;9.65;59.35
22206;BME280;11272;50.104;8.754;2023-01-10T13:28:52;101138.75;;;9.59;59.78
22206;BME280;11272;50.104;8.754;2023-01-10T13:31:24;101126.44;;;9.49;59.92
22206;BME280;11272;50.104;8.754;2023-01-10T13:34:03;101150.34;;;9.45;59.99
22206;BME280;11272;50.104;8.754;2023-01-10T13:36:39;101143.22;;;9.47;60.59
22206;BME280;11272;50.104;8.754;2023-01-10T13:39:29;101141.41;;;9.58;60.56
22206;BME280;11272;50.104;8.754;2023-01-10T14:04:25;101127.25;;;9.59;61.05
22206;BME280;11272;50.104;8.754;2023-01-10T14:06:57;101113.19;;;9.51;61.07
22206;BME280;11272;50.104;8.754;2023-01-10T14:12:01;101122.06;;;9.45;60.94
22206;BME280;11272;50.104;8.754;2023-01-10T14:14:33;101115.00;;;9.37;61.40
22206;BME280;11272;50.104;8.754;2023-01-10T14:17:21;101118.56;;;9.29;60.98
22206;BME280;11272;50.104;8.754;2023-01-10T14:19:59;101118.59;;;9.26;61.30
22206;BME280;11272;50.104;8.754;2023-01-10T14:22:28;101114.22;;;9.22;61.25
22206;BME280;11272;50.104;8.754;2023-01-10T14:24:56;101100.97;;;9.19;60.81
22206;BME280;11272;50.104;8.754;2023-01-10T14:27:23;101098.34;;;9.16;61.65
22206;BME280;11272;50.104;8.754;2023-01-10T14:29:53;101095.69;;;9.16;61.23
22206;BME280;11272;50.104;8.754;2023-01-10T14:35:21;101097.50;;;9.07;61.70
22206;BME280;11272;50.104;8.754;2023-01-10T14:37:56;101090.44;;;9.06;61.18
22206;BME280;11272;50.104;8.754;2023-01-10T14:40:40;101088.69;;;9.03;61.88
22206;BME280;11272;50.104;8.754;2023-01-10T14:43:14;101095.75;;;9.04;61.58
22206;BME280;11272;50.104;8.754;2023-01-10T14:46:03;101095.78;;;9.03;61.48
22206;BME280;11272;50.104;8.754;2023-01-10T14:48:39;101087.81;;;9.00;61.74
22206;BME280;11272;50.104;8.754;2023-01-10T14:53:41;101090.50;;;8.95;61.39
22206;BME280;11272;50.104;8.754;2023-01-10T14:59:25;101080.81;;;8.88;61.88
22206;BME280;11272;50.104;8.754;2023-01-10T15:02:07;101081.72;;;8.84;62.07
22206;BME280;11272;50.104;8.754;2023-01-10T15:04:48;101073.78;;;8.78;61.59
22206;BME280;11272;50.104;8.754;2023-01-10T15:07:14;101074.69;;;8.75;62.18
22206;BME280;11272;50.104;8.754;2023-01-10T15:09:47;101072.03;;;8.74;61.75
22206;BME280;11272;50.104;8.754;2023-01-10T15:12:14;101066.75;;;8.71;62.27
22206;BME280;11272;50.104;8.754;2023-01-10T15:14:41;101069.41;;;8.68;62.08
22206;BME280;11272;50.104;8.754;2023-01-10T15:17:11;101066.75;;;8.68;62.39
22206;BME280;11272;50.104;8.754;2023-01-10T15:19:42;101068.56;;;8.63;62.09
22206;BME280;11272;50.104;8.754;2023-01-10T15:22:46;101066.81;;;8.57;61.90
22206;BME280;11272;50.104;8.754;2023-01-10T15:27:44;101069.47;;;8.53;62.63
22206;BME280;11272;50.104;8.754;2023-01-10T15:30:14;101074.75;;;8.50;62.52
22206;BME280;11272;50.104;8.754;2023-01-10T15:32:42;101083.59;;;8.45;62.31
22206;BME280;11272;50.104;8.754;2023-01-10T15:35:11;101078.31;;;8.42;63.01
22206;BME280;11272;50.104;8.754;2023-01-10T15:37:38;101070.38;;;8.41;63.20
22206;BME280;11272;50.104;8.754;2023-01-10T15:40:28;101079.22;;;8.38;62.79
22206;BME280;11272;50.104;8.754;2023-01-10T15:45:43;101065.09;;;8.38;63.07
22206;BME280;11272;50.104;8.754;2023-01-10T15:48:41;101056.28;;;8.36;62.54
22206;BME280;11272;50.104;8.754;2023-01-10T15:51:25;101058.06;;;8.31;63.12
22206;BME280;11272;50.104;8.754;2023-01-10T15:54:08;101049.22;;;8.27;63.38
22206;BME280;11272;50.104;8.754;2023-01-10T15:56:57;101054.50;;;8.26;63.48
22206;BME280;11272;50.104;8.754;2023-01-10T15:59:31;101044.78;;;8.23;63.28